sensor_id;sensor_type;location;lat;lon;timestamp;temperature;humidity
49238;DHT22;35069;47.906;1.892;2023-12-14T00:01:52;9.70;83.40
49238;DHT22;35069;47.906;1.892;2023-12-14T00:04:17;9.70;83.50
49238;DHT22;35069;47.906;1.892;2023-12-14T00:06:43;9.70;83.80
49238;DHT22;35069;47.906;1.892;2023-12-14T00:09:09;9.60;83.90
49238;DHT22;35069;47.906;1.892;2023-12-14T00:11:38;9.60;84.00
49238;DHT22;35069;47.906;1.892;2023-12-14T00:14:07;9.70;84.00
49238;DHT22;35069;47.906;1.892;2023-12-14T00:16:32;9.70;84.30
49238;DHT22;35069;47.906;1.892;2023-12-14T00:18:58;9.70;84.10
49238;DHT22;35069;47.906;1.892;2023-12-14T00:21:23;9.80;84.30
49238;DHT22;35069;47.906;1.892;2023-12-14T00:23:49;9.80;84.30
49238;DHT22;35069;47.906;1.892;2023-12-14T00:26:15;9.80;84.30
49238;DHT22;35069;47.906;1.892;2023-12-14T00:28:40;9.80;84.30
49238;DHT22;35069;47.906;1.892;2023-12-14T00:31:06;9.80;84.20
49238;DHT22;35069;47.906;1.892;2023-12-14T00:33:31;9.80;84.30
49238;DHT22;35069;47.906;1.892;2023-12-14T00:35:57;9.90;84.30
49238;DHT22;35069;47.906;1.892;2023-12-14T00:38:23;9.80;84.50
49238;DHT22;35069;47.906;1.892;2023-12-14T00:40:48;9.80;84.50
49238;DHT22;35069;47.906;1.892;2023-12-14T00:43:14;9.80;84.60
49238;DHT22;35069;47.906;1.892;2023-12-14T00:45:40;9.80;84.60
49238;DHT22;35069;47.906;1.892;2023-12-14T00:48:06;9.80;84.70
49238;DHT22;35069;47.906;1.892;2023-12-14T00:50:32;9.80;84.70
49238;DHT22;35069;47.906;1.892;2023-12-14T00:52:58;9.80;84.70
49238;DHT22;35069;47.906;1.892;2023-12-14T00:55:23;9.80;84.70
49238;DHT22;35069;47.906;1.892;2023-12-14T00:57:49;9.80;84.60
49238;DHT22;35069;47.906;1.892;2023-12-14T01:00:15;9.80;84.70
49238;DHT22;35069;47.906;1.892;2023-12-14T01:02:40;9.80;85.30
49238;DHT22;35069;47.906;1.892;2023-12-14T01:05:06;9.70;84.80
49238;DHT22;35069;47.906;1.892;2023-12-14T01:07:32;9.70;84.80
49238;DHT22;35069;47.906;1.892;2023-12-14T01:09:57;9.70;84.50
49238;DHT22;35069;47.906;1.892;2023-12-14T01:12:23;9.70;84.50
49238;DHT22;35069;47.906;1.892;2023-12-14T01:14:49;9.60;84.10
49238;DHT22;35069;47.906;1.892;2023-12-14T01:17:14;9.60;84.40
49238;DHT22;35069;47.906;1.892;2023-12-14T01:19:40;9.50;84.30
49238;DHT22;35069;47.906;1.892;2023-12-14T01:22:06;9.60;84.10
49238;DHT22;35069;47.906;1.892;2023-12-14T01:24:32;9.50;84.10
49238;DHT22;35069;47.906;1.892;2023-12-14T01:26:58;9.60;84.30
49238;DHT22;35069;47.906;1.892;2023-12-14T01:29:23;9.60;83.90
49238;DHT22;35069;47.906;1.892;2023-12-14T01:31:49;9.70;83.90
49238;DHT22;35069;47.906;1.892;2023-12-14T01:34:14;9.60;83.50
49238;DHT22;35069;47.906;1.892;2023-12-14T01:36:41;9.60;83.70
49238;DHT22;35069;47.906;1.892;2023-12-14T01:39:07;9.60;83.10
49238;DHT22;35069;47.906;1.892;2023-12-14T01:41:32;9.60;83.50
49238;DHT22;35069;47.906;1.892;2023-12-14T01:43:58;9.60;83.40
49238;DHT22;35069;47.906;1.892;2023-12-14T01:46:23;9.60;83.30
49238;DHT22;35069;47.906;1.892;2023-12-14T01:48:49;9.70;83.50
49238;DHT22;35069;47.906;1.892;2023-12-14T01:51:15;9.70;83.30
49238;DHT22;35069;47.906;1.892;2023-12-14T01:53:41;9.70;83.10
49238;DHT22;35069;47.906;1.892;2023-12-14T01:56:07;9.70;83.20
49238;DHT22;35069;47.906;1.892;2023-12-14T01:58:33;9.70;83.20
49238;DHT22;35069;47.906;1.892;2023-12-14T02:03:46;9.60;83.10
49238;DHT22;35069;47.906;1.892;2023-12-14T02:06:13;9.60;83.10
49238;DHT22;35069;47.906;1.892;2023-12-14T02:08:39;9.60;83.10
49238;DHT22;35069;47.906;1.892;2023-12-14T02:11:04;9.60;83.00
49238;DHT22;35069;47.906;1.892;2023-12-14T02:13:30;9.50;83.20
49238;DHT22;35069;47.906;1.892;2023-12-14T02:15:55;9.60;83.50
49238;DHT22;35069;47.906;1.892;2023-12-14T02:18:21;9.60;83.40
49238;DHT22;35069;47.906;1.892;2023-12-14T02:20:47;9.60;83.20
49238;DHT22;35069;47.906;1.892;2023-12-14T02:23:12;9.50;83.30
49238;DHT22;35069;47.906;1.892;2023-12-14T02:25:38;9.50;83.30
49238;DHT22;35069;47.906;1.892;2023-12-14T02:28:04;9.60;83.40
49238;DHT22;35069;47.906;1.892;2023-12-14T02:30:29;9.60;83.20
49238;DHT22;35069;47.906;1.892;2023-12-14T02:32:55;9.60;83.10
49238;DHT22;35069;47.906;1.892;2023-12-14T02:35:21;9.60;83.00
49238;DHT22;35069;47.906;1.892;2023-12-14T02:37:48;9.60;82.90
49238;DHT22;35069;47.906;1.892;2023-12-14T02:40:14;9.60;83.10
49238;DHT22;35069;47.906;1.892;2023-12-14T02:42:40;9.60;83.00
49238;DHT22;35069;47.906;1.892;2023-12-14T02:45:07;9.60;82.90
49238;DHT22;35069;47.906;1.892;2023-12-14T02:47:35;9.60;82.90
49238;DHT22;35069;47.906;1.892;2023-12-14T02:50:01;9.60;82.70
49238;DHT22;35069;47.906;1.892;2023-12-14T02:52:27;9.60;82.90
49238;DHT22;35069;47.906;1.892;2023-12-14T02:54:52;9.60;82.80
49238;DHT22;35069;47.906;1.892;2023-12-14T02:57:18;9.60;82.90
49238;DHT22;35069;47.906;1.892;2023-12-14T02:59:44;9.60;82.90
49238;DHT22;35069;47.906;1.892;2023-12-14T03:02:09;9.60;82.90
49238;DHT22;35069;47.906;1.892;2023-12-14T03:04:38;9.60;82.90
49238;DHT22;35069;47.906;1.892;2023-12-14T03:07:05;9.60;83.00
49238;DHT22;35069;47.906;1.892;2023-12-14T03:09:30;9.60;83.10
49238;DHT22;35069;47.906;1.892;2023-12-14T03:11:56;9.60;82.90
49238;DHT22;35069;47.906;1.892;2023-12-14T03:14:22;9.60;82.80
49238;DHT22;35069;47.906;1.892;2023-12-14T03:16:48;9.60;82.80
49238;DHT22;35069;47.906;1.892;2023-12-14T03:19:17;9.60;82.80
49238;DHT22;35069;47.906;1.892;2023-12-14T03:21:43;9.60;82.70
49238;DHT22;35069;47.906;1.892;2023-12-14T03:24:08;9.60;83.00
49238;DHT22;35069;47.906;1.892;2023-12-14T03:26:37;9.60;83.00
49238;DHT22;35069;47.906;1.892;2023-12-14T03:29:02;9.60;83.10
49238;DHT22;35069;47.906;1.892;2023-12-14T03:31:28;9.70;83.10
49238;DHT22;35069;47.906;1.892;2023-12-14T03:33:54;9.70;82.90
49238;DHT22;35069;47.906;1.892;2023-12-14T03:36:19;9.60;83.00
49238;DHT22;35069;47.906;1.892;2023-12-14T03:38:48;9.60;82.90
49238;DHT22;35069;47.906;1.892;2023-12-14T03:41:13;9.70;83.10
49238;DHT22;35069;47.906;1.892;2023-12-14T03:43:39;9.70;83.10
49238;DHT22;35069;47.906;1.892;2023-12-14T03:46:04;9.60;82.80
49238;DHT22;35069;47.906;1.892;2023-12-14T03:48:32;9.70;82.80
49238;DHT22;35069;47.906;1.892;2023-12-14T03:50:57;9.70;82.80
49238;DHT22;35069;47.906;1.892;2023-12-14T03:53:23;9.50;82.30
49238;DHT22;35069;47.906;1.892;2023-12-14T03:55:48;9.60;82.80
49238;DHT22;35069;47.906;1.892;2023-12-14T03:58:14;9.60;82.80
49238;DHT22;35069;47.906;1.892;2023-12-14T04:00:39;9.60;82.60
49238;DHT22;35069;47.906;1.892;2023-12-14T04:03:05;9.60;82.60
49238;DHT22;35069;47.906;1.892;2023-12-14T04:05:30;9.60;82.80
49238;DHT22;35069;47.906;1.892;2023-12-14T04:07:56;9.60;82.70
49238;DHT22;35069;47.906;1.892;2023-12-14T04:10:22;9.60;82.60
49238;DHT22;35069;47.906;1.892;2023-12-14T04:12:47;9.60;82.50
49238;DHT22;35069;47.906;1.892;2023-12-14T04:15:13;9.60;82.60
49238;DHT22;35069;47.906;1.892;2023-12-14T04:17:38;9.60;82.60
49238;DHT22;35069;47.906;1.892;2023-12-14T04:20:04;9.60;82.60
49238;DHT22;35069;47.906;1.892;2023-12-14T04:22:31;9.60;82.50
49238;DHT22;35069;47.906;1.892;2023-12-14T04:24:57;9.60;82.60
49238;DHT22;35069;47.906;1.892;2023-12-14T04:27:22;9.60;82.80
49238;DHT22;35069;47.906;1.892;2023-12-14T04:29:52;9.60;82.60
49238;DHT22;35069;47.906;1.892;2023-12-14T04:32:18;9.60;82.60
49238;DHT22;35069;47.906;1.892;2023-12-14T04:34:43;9.60;82.60
49238;DHT22;35069;47.906;1.892;2023-12-14T04:37:09;9.60;82.60
49238;DHT22;35069;47.906;1.892;2023-12-14T04:39:34;9.60;82.50
49238;DHT22;35069;47.906;1.892;2023-12-14T04:42:00;9.60;82.60
49238;DHT22;35069;47.906;1.892;2023-12-14T04:44:25;9.60;82.40
49238;DHT22;35069;47.906;1.892;2023-12-14T04:46:51;9.60;82.40
49238;DHT22;35069;47.906;1.892;2023-12-14T04:49:18;9.60;82.40
49238;DHT22;35069;47.906;1.892;2023-12-14T04:51:44;9.60;82.30
49238;DHT22;35069;47.906;1.892;2023-12-14T04:54:09;9.60;82.20
49238;DHT22;35069;47.906;1.892;2023-12-14T04:56:35;9.60;82.30
49238;DHT22;35069;47.906;1.892;2023-12-14T04:59:01;9.50;82.10
49238;DHT22;35069;47.906;1.892;2023-12-14T05:01:26;9.50;82.20
49238;DHT22;35069;47.906;1.892;2023-12-14T05:03:52;9.50;82.30
49238;DHT22;35069;47.906;1.892;2023-12-14T05:06:18;9.50;82.30
49238;DHT22;35069;47.906;1.892;2023-12-14T05:08:44;9.50;82.50
49238;DHT22;35069;47.906;1.892;2023-12-14T05:11:09;9.50;82.50
49238;DHT22;35069;47.906;1.892;2023-12-14T05:13:35;9.50;82.60
49238;DHT22;35069;47.906;1.892;2023-12-14T05:16:01;9.40;82.60
49238;DHT22;35069;47.906;1.892;2023-12-14T05:18:27;9.50;82.80
49238;DHT22;35069;47.906;1.892;2023-12-14T05:20:53;9.50;83.00
49238;DHT22;35069;47.906;1.892;2023-12-14T05:23:18;9.40;83.00
49238;DHT22;35069;47.906;1.892;2023-12-14T05:25:44;9.40;83.10
49238;DHT22;35069;47.906;1.892;2023-12-14T05:28:10;9.40;83.20
49238;DHT22;35069;47.906;1.892;2023-12-14T05:30:36;9.30;83.30
49238;DHT22;35069;47.906;1.892;2023-12-14T05:33:01;9.30;83.50
49238;DHT22;35069;47.906;1.892;2023-12-14T05:35:27;9.30;83.60
49238;DHT22;35069;47.906;1.892;2023-12-14T05:37:53;9.30;83.50
49238;DHT22;35069;47.906;1.892;2023-12-14T05:40:18;9.30;83.60
49238;DHT22;35069;47.906;1.892;2023-12-14T05:42:44;9.30;83.50
49238;DHT22;35069;47.906;1.892;2023-12-14T05:45:10;9.30;83.40
49238;DHT22;35069;47.906;1.892;2023-12-14T05:47:35;9.30;83.20
49238;DHT22;35069;47.906;1.892;2023-12-14T05:50:01;9.30;83.30
49238;DHT22;35069;47.906;1.892;2023-12-14T05:52:27;9.30;83.30
49238;DHT22;35069;47.906;1.892;2023-12-14T05:54:53;9.30;83.50
49238;DHT22;35069;47.906;1.892;2023-12-14T05:57:18;9.20;83.30
49238;DHT22;35069;47.906;1.892;2023-12-14T05:59:44;9.20;83.40
49238;DHT22;35069;47.906;1.892;2023-12-14T06:02:09;9.30;83.60
49238;DHT22;35069;47.906;1.892;2023-12-14T06:04:35;9.20;83.60
49238;DHT22;35069;47.906;1.892;2023-12-14T06:07:01;9.20;83.50
49238;DHT22;35069;47.906;1.892;2023-12-14T06:09:26;9.20;83.30
49238;DHT22;35069;47.906;1.892;2023-12-14T06:12:02;9.20;83.50
49238;DHT22;35069;47.906;1.892;2023-12-14T06:14:28;9.20;83.50
49238;DHT22;35069;47.906;1.892;2023-12-14T06:16:54;9.20;83.60
49238;DHT22;35069;47.906;1.892;2023-12-14T06:19:20;9.20;83.50
49238;DHT22;35069;47.906;1.892;2023-12-14T06:21:57;9.20;83.50
49238;DHT22;35069;47.906;1.892;2023-12-14T06:24:25;9.20;83.60
49238;DHT22;35069;47.906;1.892;2023-12-14T06:26:54;9.20;83.70
49238;DHT22;35069;47.906;1.892;2023-12-14T06:29:20;9.30;83.80
49238;DHT22;35069;47.906;1.892;2023-12-14T06:31:45;9.20;83.50
49238;DHT22;35069;47.906;1.892;2023-12-14T06:34:11;9.20;83.40
49238;DHT22;35069;47.906;1.892;2023-12-14T06:37:03;9.20;83.30
49238;DHT22;35069;47.906;1.892;2023-12-14T06:40:07;9.20;83.80
49238;DHT22;35069;47.906;1.892;2023-12-14T06:42:39;9.20;83.50
49238;DHT22;35069;47.906;1.892;2023-12-14T06:45:10;9.20;83.70
49238;DHT22;35069;47.906;1.892;2023-12-14T06:48:04;9.20;83.70
49238;DHT22;35069;47.906;1.892;2023-12-14T06:50:57;9.20;83.60
49238;DHT22;35069;47.906;1.892;2023-12-14T06:53:23;9.30;83.30
49238;DHT22;35069;47.906;1.892;2023-12-14T06:55:49;9.30;83.50
49238;DHT22;35069;47.906;1.892;2023-12-14T06:58:17;9.30;83.40
49238;DHT22;35069;47.906;1.892;2023-12-14T07:00:43;9.30;83.40
49238;DHT22;35069;47.906;1.892;2023-12-14T07:03:56;9.30;83.20
49238;DHT22;35069;47.906;1.892;2023-12-14T07:06:41;9.30;83.20
49238;DHT22;35069;47.906;1.892;2023-12-14T07:20:39;9.20;83.40
49238;DHT22;35069;47.906;1.892;2023-12-14T07:34:18;9.30;82.70
49238;DHT22;35069;47.906;1.892;2023-12-14T07:43:21;9.30;82.30
49238;DHT22;35069;47.906;1.892;2023-12-14T07:45:48;9.20;82.40
49238;DHT22;35069;47.906;1.892;2023-12-14T07:48:14;9.20;82.90
49238;DHT22;35069;47.906;1.892;2023-12-14T07:50:45;9.20;82.80
49238;DHT22;35069;47.906;1.892;2023-12-14T07:53:21;9.10;82.80
49238;DHT22;35069;47.906;1.892;2023-12-14T07:56:16;9.20;82.50
49238;DHT22;35069;47.906;1.892;2023-12-14T08:01:47;9.10;82.30
49238;DHT22;35069;47.906;1.892;2023-12-14T08:04:19;9.10;82.10
49238;DHT22;35069;47.906;1.892;2023-12-14T08:10:39;9.10;82.00
49238;DHT22;35069;47.906;1.892;2023-12-14T08:13:12;9.20;82.10
49238;DHT22;35069;47.906;1.892;2023-12-14T08:15:38;9.20;81.90
49238;DHT22;35069;47.906;1.892;2023-12-14T08:18:04;9.10;82.00
49238;DHT22;35069;47.906;1.892;2023-12-14T08:20:29;9.10;82.00
49238;DHT22;35069;47.906;1.892;2023-12-14T08:22:55;9.10;82.10
49238;DHT22;35069;47.906;1.892;2023-12-14T08:25:28;9.20;82.10
49238;DHT22;35069;47.906;1.892;2023-12-14T08:27:59;9.20;81.70
49238;DHT22;35069;47.906;1.892;2023-12-14T08:30:27;9.20;82.00
49238;DHT22;35069;47.906;1.892;2023-12-14T08:33:04;9.20;81.90
49238;DHT22;35069;47.906;1.892;2023-12-14T08:35:30;9.30;81.80
49238;DHT22;35069;47.906;1.892;2023-12-14T08:37:56;9.30;81.90
49238;DHT22;35069;47.906;1.892;2023-12-14T08:40:26;9.40;81.80
49238;DHT22;35069;47.906;1.892;2023-12-14T08:43:22;9.50;81.80
49238;DHT22;35069;47.906;1.892;2023-12-14T08:45:47;9.50;81.30
49238;DHT22;35069;47.906;1.892;2023-12-14T08:48:14;9.60;81.90
49238;DHT22;35069;47.906;1.892;2023-12-14T08:50:39;9.60;81.90
49238;DHT22;35069;47.906;1.892;2023-12-14T08:53:14;9.70;81.60
49238;DHT22;35069;47.906;1.892;2023-12-14T08:55:45;9.60;80.70
49238;DHT22;35069;47.906;1.892;2023-12-14T08:58:13;9.60;80.80
49238;DHT22;35069;47.906;1.892;2023-12-14T09:00:40;9.60;81.10
49238;DHT22;35069;47.906;1.892;2023-12-14T09:03:05;9.50;80.90
49238;DHT22;35069;47.906;1.892;2023-12-14T09:05:31;9.50;81.00
49238;DHT22;35069;47.906;1.892;2023-12-14T09:08:17;9.60;80.80
49238;DHT22;35069;47.906;1.892;2023-12-14T09:11:12;9.60;80.70
49238;DHT22;35069;47.906;1.892;2023-12-14T09:13:42;9.50;80.50
49238;DHT22;35069;47.906;1.892;2023-12-14T09:16:16;9.50;80.40
49238;DHT22;35069;47.906;1.892;2023-12-14T09:18:42;9.50;81.30
49238;DHT22;35069;47.906;1.892;2023-12-14T09:21:32;9.50;80.40
49238;DHT22;35069;47.906;1.892;2023-12-14T09:24:06;9.50;80.40
49238;DHT22;35069;47.906;1.892;2023-12-14T09:26:43;9.50;80.60
49238;DHT22;35069;47.906;1.892;2023-12-14T09:29:18;9.60;80.60
49238;DHT22;35069;47.906;1.892;2023-12-14T09:31:54;9.70;80.70
49238;DHT22;35069;47.906;1.892;2023-12-14T09:37:36;10.10;80.40
49238;DHT22;35069;47.906;1.892;2023-12-14T09:42:46;10.80;80.60
49238;DHT22;35069;47.906;1.892;2023-12-14T09:45:17;11.00;78.70
49238;DHT22;35069;47.906;1.892;2023-12-14T09:48:05;11.10;78.90
49238;DHT22;35069;47.906;1.892;2023-12-14T09:54:44;11.10;76.90
49238;DHT22;35069;47.906;1.892;2023-12-14T09:57:17;11.10;76.80
49238;DHT22;35069;47.906;1.892;2023-12-14T10:00:19;11.00;77.70
49238;DHT22;35069;47.906;1.892;2023-12-14T10:02:46;10.80;76.20
49238;DHT22;35069;47.906;1.892;2023-12-14T10:05:22;10.80;76.80
49238;DHT22;35069;47.906;1.892;2023-12-14T10:07:50;10.70;76.70
49238;DHT22;35069;47.906;1.892;2023-12-14T10:10:20;10.80;77.50
49238;DHT22;35069;47.906;1.892;2023-12-14T10:12:52;10.80;76.80
49238;DHT22;35069;47.906;1.892;2023-12-14T10:15:18;11.10;77.40
49238;DHT22;35069;47.906;1.892;2023-12-14T10:17:44;10.90;76.00
49238;DHT22;35069;47.906;1.892;2023-12-14T10:20:20;10.70;75.80
49238;DHT22;35069;47.906;1.892;2023-12-14T10:22:54;10.70;76.50
49238;DHT22;35069;47.906;1.892;2023-12-14T10:25:22;10.60;75.80
49238;DHT22;35069;47.906;1.892;2023-12-14T10:27:48;10.50;76.30
49238;DHT22;35069;47.906;1.892;2023-12-14T10:30:24;10.50;76.50
49238;DHT22;35069;47.906;1.892;2023-12-14T10:32:50;10.50;76.30
49238;DHT22;35069;47.906;1.892;2023-12-14T10:35:26;10.60;76.10
49238;DHT22;35069;47.906;1.892;2023-12-14T10:38:08;10.70;76.10
49238;DHT22;35069;47.906;1.892;2023-12-14T10:41:00;11.20;72.10
49238;DHT22;35069;47.906;1.892;2023-12-14T10:43:47;11.20;75.40
49238;DHT22;35069;47.906;1.892;2023-12-14T10:46:14;11.10;74.80
49238;DHT22;35069;47.906;1.892;2023-12-14T10:48:40;11.00;74.40
49238;DHT22;35069;47.906;1.892;2023-12-14T10:51:13;11.30;75.10
49238;DHT22;35069;47.906;1.892;2023-12-14T10:53:40;12.40;77.10
49238;DHT22;35069;47.906;1.892;2023-12-14T10:56:10;12.40;75.10
49238;DHT22;35069;47.906;1.892;2023-12-14T10:58:55;12.40;73.80
49238;DHT22;35069;47.906;1.892;2023-12-14T11:01:23;13.30;72.00
49238;DHT22;35069;47.906;1.892;2023-12-14T11:03:59;14.00;73.40
49238;DHT22;35069;47.906;1.892;2023-12-14T11:09:10;16.70;73.00
49238;DHT22;35069;47.906;1.892;2023-12-14T11:14:22;16.60;63.00
49238;DHT22;35069;47.906;1.892;2023-12-14T11:42:06;14.20;58.90
49238;DHT22;35069;47.906;1.892;2023-12-14T11:44:57;13.50;63.70
49238;DHT22;35069;47.906;1.892;2023-12-14T11:47:23;13.20;64.30
49238;DHT22;35069;47.906;1.892;2023-12-14T11:50:07;12.70;64.10
49238;DHT22;35069;47.906;1.892;2023-12-14T11:52:43;12.30;62.60
49238;DHT22;35069;47.906;1.892;2023-12-14T11:55:44;12.30;65.30
49238;DHT22;35069;47.906;1.892;2023-12-14T11:58:54;13.00;62.90
49238;DHT22;35069;47.906;1.892;2023-12-14T12:01:39;13.70;60.60
49238;DHT22;35069;47.906;1.892;2023-12-14T12:07:41;14.40;57.60
49238;DHT22;35069;47.906;1.892;2023-12-14T12:10:18;14.00;62.10
49238;DHT22;35069;47.906;1.892;2023-12-14T12:19:06;13.10;60.70
49238;DHT22;35069;47.906;1.892;2023-12-14T12:24:48;14.20;58.20
49238;DHT22;35069;47.906;1.892;2023-12-14T12:30:54;13.60;58.70
49238;DHT22;35069;47.906;1.892;2023-12-14T12:33:35;13.20;59.30
49238;DHT22;35069;47.906;1.892;2023-12-14T12:36:06;13.00;61.90
49238;DHT22;35069;47.906;1.892;2023-12-14T12:38:31;12.70;62.10
49238;DHT22;35069;47.906;1.892;2023-12-14T12:41:03;12.50;62.60
49238;DHT22;35069;47.906;1.892;2023-12-14T12:43:31;12.30;63.00
49238;DHT22;35069;47.906;1.892;2023-12-14T12:45:59;12.20;63.50
49238;DHT22;35069;47.906;1.892;2023-12-14T12:48:48;12.20;64.10
49238;DHT22;35069;47.906;1.892;2023-12-14T12:51:21;12.00;64.10
49238;DHT22;35069;47.906;1.892;2023-12-14T12:53:47;12.00;64.10
49238;DHT22;35069;47.906;1.892;2023-12-14T12:56:16;11.90;64.30
49238;DHT22;35069;47.906;1.892;2023-12-14T12:58:45;11.80;64.40
49238;DHT22;35069;47.906;1.892;2023-12-14T13:01:13;11.70;64.60
49238;DHT22;35069;47.906;1.892;2023-12-14T13:03:39;11.60;64.90
49238;DHT22;35069;47.906;1.892;2023-12-14T13:09:50;11.60;64.90
49238;DHT22;35069;47.906;1.892;2023-12-14T13:12:41;11.50;65.40
49238;DHT22;35069;47.906;1.892;2023-12-14T13:15:17;11.50;65.80
49238;DHT22;35069;47.906;1.892;2023-12-14T13:17:57;11.60;66.00
49238;DHT22;35069;47.906;1.892;2023-12-14T13:20:23;11.70;66.10
49238;DHT22;35069;47.906;1.892;2023-12-14T13:22:49;11.80;66.10
49238;DHT22;35069;47.906;1.892;2023-12-14T13:25:14;11.90;66.20
49238;DHT22;35069;47.906;1.892;2023-12-14T13:27:40;11.90;65.90
49238;DHT22;35069;47.906;1.892;2023-12-14T13:30:09;11.90;65.80
49238;DHT22;35069;47.906;1.892;2023-12-14T13:32:41;11.90;65.60
49238;DHT22;35069;47.906;1.892;2023-12-14T13:35:07;11.90;65.80
49238;DHT22;35069;47.906;1.892;2023-12-14T13:40:35;11.70;65.90
49238;DHT22;35069;47.906;1.892;2023-12-14T13:43:01;11.60;66.10
49238;DHT22;35069;47.906;1.892;2023-12-14T13:45:38;11.50;66.20
49238;DHT22;35069;47.906;1.892;2023-12-14T13:48:04;11.40;66.40
49238;DHT22;35069;47.906;1.892;2023-12-14T13:50:41;11.40;66.90
49238;DHT22;35069;47.906;1.892;2023-12-14T13:53:14;11.40;67.30
49238;DHT22;35069;47.906;1.892;2023-12-14T13:55:59;11.30;67.40
49238;DHT22;35069;47.906;1.892;2023-12-14T13:58:25;11.20;67.60
49238;DHT22;35069;47.906;1.892;2023-12-14T14:33:12;11.00;69.00
49238;DHT22;35069;47.906;1.892;2023-12-14T14:35:48;10.80;69.50
49238;DHT22;35069;47.906;1.892;2023-12-14T14:38:52;10.70;69.40
49238;DHT22;35069;47.906;1.892;2023-12-14T14:41:11;10.70;69.60
49238;DHT22;35069;47.906;1.892;2023-12-14T14:50:38;10.70;70.20
49238;DHT22;35069;47.906;1.892;2023-12-14T14:56:13;10.60;70.10
49238;DHT22;35069;47.906;1.892;2023-12-14T14:58:42;10.60;70.20
49238;DHT22;35069;47.906;1.892;2023-12-14T15:01:11;10.60;70.10
49238;DHT22;35069;47.906;1.892;2023-12-14T15:03:39;10.50;71.30
49238;DHT22;35069;47.906;1.892;2023-12-14T15:06:05;10.50;70.50
49238;DHT22;35069;47.906;1.892;2023-12-14T15:08:30;10.50;71.10
49238;DHT22;35069;47.906;1.892;2023-12-14T15:10:58;10.50;70.60
49238;DHT22;35069;47.906;1.892;2023-12-14T15:13:24;10.50;70.80
49238;DHT22;35069;47.906;1.892;2023-12-14T15:15:59;10.40;70.70
49238;DHT22;35069;47.906;1.892;2023-12-14T15:25:35;10.50;71.00
49238;DHT22;35069;47.906;1.892;2023-12-14T15:28:44;10.40;71.30
49238;DHT22;35069;47.906;1.892;2023-12-14T15:34:41;10.40;71.10
49238;DHT22;35069;47.906;1.892;2023-12-14T15:40:27;10.30;71.40
49238;DHT22;35069;47.906;1.892;2023-12-14T15:43:13;10.30;71.40
49238;DHT22;35069;47.906;1.892;2023-12-14T15:46:16;10.30;71.40
49238;DHT22;35069;47.906;1.892;2023-12-14T15:48:47;10.20;72.10
49238;DHT22;35069;47.906;1.892;2023-12-14T15:51:20;10.20;71.70
49238;DHT22;35069;47.906;1.892;2023-12-14T15:56:57;10.20;71.90
49238;DHT22;35069;47.906;1.892;2023-12-14T15:59:24;10.10;72.10
49238;DHT22;35069;47.906;1.892;2023-12-14T16:01:50;10.20;72.30
49238;DHT22;35069;47.906;1.892;2023-12-14T16:04:16;10.10;72.40
49238;DHT22;35069;47.906;1.892;2023-12-14T16:06:45;10.10;72.30
49238;DHT22;35069;47.906;1.892;2023-12-14T16:09:16;10.10;72.50
49238;DHT22;35069;47.906;1.892;2023-12-14T16:11:54;10.10;72.70
49238;DHT22;35069;47.906;1.892;2023-12-14T16:21:32;10.10;73.40
49238;DHT22;35069;47.906;1.892;2023-12-14T16:34:27;9.90;73.20
49238;DHT22;35069;47.906;1.892;2023-12-14T16:37:41;9.90;73.40
49238;DHT22;35069;47.906;1.892;2023-12-14T16:40:09;9.90;73.80
49238;DHT22;35069;47.906;1.892;2023-12-14T16:42:47;9.90;73.40
49238;DHT22;35069;47.906;1.892;2023-12-14T16:45:15;9.90;73.50
49238;DHT22;35069;47.906;1.892;2023-12-14T16:47:41;9.90;73.60
49238;DHT22;35069;47.906;1.892;2023-12-14T16:50:10;9.80;73.60
49238;DHT22;35069;47.906;1.892;2023-12-14T16:52:37;9.80;73.80
49238;DHT22;35069;47.906;1.892;2023-12-14T16:55:04;9.90;74.00
49238;DHT22;35069;47.906;1.892;2023-12-14T16:57:29;9.80;74.00
49238;DHT22;35069;47.906;1.892;2023-12-14T16:59:55;9.80;74.10
49238;DHT22;35069;47.906;1.892;2023-12-14T17:02:21;9.80;74.30
49238;DHT22;35069;47.906;1.892;2023-12-14T17:04:47;9.80;74.50
49238;DHT22;35069;47.906;1.892;2023-12-14T17:07:12;9.80;74.80
49238;DHT22;35069;47.906;1.892;2023-12-14T17:09:45;9.70;75.00
49238;DHT22;35069;47.906;1.892;2023-12-14T17:12:13;9.80;75.50
49238;DHT22;35069;47.906;1.892;2023-12-14T17:14:41;9.70;75.50
49238;DHT22;35069;47.906;1.892;2023-12-14T17:17:07;9.70;75.50
49238;DHT22;35069;47.906;1.892;2023-12-14T17:19:32;9.70;75.70
49238;DHT22;35069;47.906;1.892;2023-12-14T17:21:58;9.70;75.80
49238;DHT22;35069;47.906;1.892;2023-12-14T17:24:24;9.70;75.80
49238;DHT22;35069;47.906;1.892;2023-12-14T17:26:49;9.70;75.80
49238;DHT22;35069;47.906;1.892;2023-12-14T17:29:18;9.70;75.90
49238;DHT22;35069;47.906;1.892;2023-12-14T17:31:46;9.60;75.80
49238;DHT22;35069;47.906;1.892;2023-12-14T17:40:44;9.60;76.00
49238;DHT22;35069;47.906;1.892;2023-12-14T17:43:10;9.60;76.10
49238;DHT22;35069;47.906;1.892;2023-12-14T17:45:35;9.50;76.20
49238;DHT22;35069;47.906;1.892;2023-12-14T17:48:01;9.50;76.20
49238;DHT22;35069;47.906;1.892;2023-12-14T17:50:27;9.50;76.30
49238;DHT22;35069;47.906;1.892;2023-12-14T17:52:52;9.50;76.30
49238;DHT22;35069;47.906;1.892;2023-12-14T17:55:18;9.60;76.30
49238;DHT22;35069;47.906;1.892;2023-12-14T17:57:44;9.50;76.30
49238;DHT22;35069;47.906;1.892;2023-12-14T18:00:10;9.50;76.50
49238;DHT22;35069;47.906;1.892;2023-12-14T18:02:36;9.50;76.50
49238;DHT22;35069;47.906;1.892;2023-12-14T18:05:02;9.60;76.50
49238;DHT22;35069;47.906;1.892;2023-12-14T18:07:28;9.50;76.60
49238;DHT22;35069;47.906;1.892;2023-12-14T18:09:53;9.60;76.70
49238;DHT22;35069;47.906;1.892;2023-12-14T18:12:19;9.50;76.70
49238;DHT22;35069;47.906;1.892;2023-12-14T18:14:45;9.50;76.90
49238;DHT22;35069;47.906;1.892;2023-12-14T18:17:10;9.50;77.00
49238;DHT22;35069;47.906;1.892;2023-12-14T18:19:36;9.50;77.00
49238;DHT22;35069;47.906;1.892;2023-12-14T18:22:02;9.50;77.00
49238;DHT22;35069;47.906;1.892;2023-12-14T18:24:27;9.50;76.90
49238;DHT22;35069;47.906;1.892;2023-12-14T18:26:53;9.50;77.00
49238;DHT22;35069;47.906;1.892;2023-12-14T18:29:19;9.50;77.00
49238;DHT22;35069;47.906;1.892;2023-12-14T18:31:44;9.50;77.00
49238;DHT22;35069;47.906;1.892;2023-12-14T18:34:10;9.50;77.00
49238;DHT22;35069;47.906;1.892;2023-12-14T18:36:36;9.50;77.10
49238;DHT22;35069;47.906;1.892;2023-12-14T18:39:01;9.40;77.30
49238;DHT22;35069;47.906;1.892;2023-12-14T18:41:27;9.40;77.20
49238;DHT22;35069;47.906;1.892;2023-12-14T18:43:52;9.40;77.40
49238;DHT22;35069;47.906;1.892;2023-12-14T18:46:19;9.40;77.40
49238;DHT22;35069;47.906;1.892;2023-12-14T18:48:45;9.40;77.30
49238;DHT22;35069;47.906;1.892;2023-12-14T18:51:10;9.40;77.30
49238;DHT22;35069;47.906;1.892;2023-12-14T18:53:36;9.40;77.40
49238;DHT22;35069;47.906;1.892;2023-12-14T18:56:02;9.40;77.40
49238;DHT22;35069;47.906;1.892;2023-12-14T18:58:29;9.40;77.30
49238;DHT22;35069;47.906;1.892;2023-12-14T19:00:55;9.40;77.30
49238;DHT22;35069;47.906;1.892;2023-12-14T19:03:20;9.30;77.40